Denali National Park, AK

9:18 AM AKDT on October 31, 2014 (GMT -0800)
Minchumina | Change Station
CLOSE
Current Station
Airport
Location: Minchumina,
Elevation: 702 ft
Nearby Weather Stations

Elev 702 ft 63.89 °N, 152.30 °W | Updated 2 minutes ago

Partly Cloudy
Partly Cloudy
16 °F
Feels Like 10 °F
N
4
Wind Variable Wind from NNE
Gusts 25 mph

Today
High -- | Low -- °F
--% Chance of Precip.
Yesterday
High -- | Low -- °F
Precip. -- in
9:41 AM 5:51 PM
First Quarter, 57% visible
Pressure 29.32 in
Visibility 8.0 miles
Clouds
Windchill 10 °F
Dew Point 10 °F
Humidity 79%
Rainfall 0.00 in
Snow Depth Not available.
UV Not available.
Pollen Not available.
Air Quality Not available.
Flu Activity Not available.
METAR PAMH 311716Z AUTO 02003KT 8SM M09/M12 A2932 RMK AO1

More Conditions Fewer Conditions

Pressure 29.32 in
Visibility 8.0 miles
Clouds
Windchill 10 °F
Dew Point 10 °F
Humidity 79%
Rainfall 0.00 in
Snow Depth Not available.
UV Not available.
Pollen Not available.
Air Quality Not available.
Flu Activity Not available.
METAR PAMH 311716Z AUTO 02003KT 8SM M09/M12 A2932 RMK AO1

More Conditions Fewer Conditions

10-Day Weather Forecast

Almanac

Astronomy

Oct. 31, 2014 Rise Set
Actual Time
Civil Twilight
Nautical Twilight
Astronomical Twilight
Moon
Length of Visible Light
Length of Day
Tomorrow will be .
, % of the Moon is Illuminated

Today's Extremes

State Highs State Lows

Community

WunderPhotos

Upload Photos

1,766,668 photos uploaded!

WunderBlogs® & News

Nearby

Air Quality

  Air Quality AQ Index Pollutant
Not available.

Snow Depth

Station Depth Elevation

Earthquake Activity

City Distance Mag. Time & Date
Minimum magnitude displayed is 2.5.

Coastal Water Temperatures

Place Temperature

Nearby Weather Stations